sensor_id;sensor_type;location;lat;lon;timestamp;temperature;humidity
13976;DHT22;7062;49.792;9.946;2023-09-08T00:00:57;20.80;99.90
13976;DHT22;7062;49.792;9.946;2023-09-08T00:03:22;20.70;99.90
13976;DHT22;7062;49.792;9.946;2023-09-08T00:05:48;20.70;99.90
13976;DHT22;7062;49.792;9.946;2023-09-08T00:08:14;20.70;99.90
13976;DHT22;7062;49.792;9.946;2023-09-08T00:10:39;20.60;99.90
13976;DHT22;7062;49.792;9.946;2023-09-08T00:13:05;20.60;99.90
13976;DHT22;7062;49.792;9.946;2023-09-08T00:15:33;20.60;99.90
13976;DHT22;7062;49.792;9.946;2023-09-08T00:18:00;20.50;99.90
13976;DHT22;7062;49.792;9.946;2023-09-08T00:20:26;20.50;99.90
13976;DHT22;7062;49.792;9.946;2023-09-08T00:22:51;20.40;99.90
13976;DHT22;7062;49.792;9.946;2023-09-08T00:25:17;20.40;99.90
13976;DHT22;7062;49.792;9.946;2023-09-08T00:27:42;20.40;99.90
13976;DHT22;7062;49.792;9.946;2023-09-08T00:30:08;20.40;99.90
13976;DHT22;7062;49.792;9.946;2023-09-08T00:32:34;20.30;99.90
13976;DHT22;7062;49.792;9.946;2023-09-08T00:35:00;20.30;99.90
13976;DHT22;7062;49.792;9.946;2023-09-08T00:37:26;20.30;99.90
13976;DHT22;7062;49.792;9.946;2023-09-08T00:39:51;20.30;99.90
13976;DHT22;7062;49.792;9.946;2023-09-08T00:42:17;20.30;99.90
13976;DHT22;7062;49.792;9.946;2023-09-08T00:44:42;20.30;99.90
13976;DHT22;7062;49.792;9.946;2023-09-08T00:47:08;20.30;99.90
13976;DHT22;7062;49.792;9.946;2023-09-08T00:49:34;20.20;99.90
13976;DHT22;7062;49.792;9.946;2023-09-08T00:51:59;20.10;99.90
13976;DHT22;7062;49.792;9.946;2023-09-08T00:54:25;20.00;99.90
13976;DHT22;7062;49.792;9.946;2023-09-08T00:56:57;20.00;99.90
13976;DHT22;7062;49.792;9.946;2023-09-08T00:59:24;20.00;99.90
13976;DHT22;7062;49.792;9.946;2023-09-08T01:01:50;19.90;99.90
13976;DHT22;7062;49.792;9.946;2023-09-08T01:04:16;19.90;99.90
13976;DHT22;7062;49.792;9.946;2023-09-08T01:06:42;19.80;99.90
13976;DHT22;7062;49.792;9.946;2023-09-08T01:09:09;19.90;99.90
13976;DHT22;7062;49.792;9.946;2023-09-08T01:11:36;19.80;99.90
13976;DHT22;7062;49.792;9.946;2023-09-08T01:14:02;19.70;99.90
13976;DHT22;7062;49.792;9.946;2023-09-08T01:16:27;19.80;99.90
13976;DHT22;7062;49.792;9.946;2023-09-08T01:18:54;19.80;99.90
13976;DHT22;7062;49.792;9.946;2023-09-08T01:24:04;19.70;99.90
13976;DHT22;7062;49.792;9.946;2023-09-08T01:26:36;19.60;99.90
13976;DHT22;7062;49.792;9.946;2023-09-08T01:29:03;19.60;99.90
13976;DHT22;7062;49.792;9.946;2023-09-08T01:31:30;19.60;99.90
13976;DHT22;7062;49.792;9.946;2023-09-08T01:33:56;19.50;99.90
13976;DHT22;7062;49.792;9.946;2023-09-08T01:36:22;19.50;99.90
13976;DHT22;7062;49.792;9.946;2023-09-08T01:38:47;19.50;99.90
13976;DHT22;7062;49.792;9.946;2023-09-08T01:41:13;19.40;99.90
13976;DHT22;7062;49.792;9.946;2023-09-08T01:43:39;19.40;99.90
13976;DHT22;7062;49.792;9.946;2023-09-08T01:46:04;19.40;99.90
13976;DHT22;7062;49.792;9.946;2023-09-08T01:48:30;19.40;99.90
13976;DHT22;7062;49.792;9.946;2023-09-08T01:50:55;19.30;99.90
13976;DHT22;7062;49.792;9.946;2023-09-08T01:53:21;19.30;99.90
13976;DHT22;7062;49.792;9.946;2023-09-08T01:55:47;19.30;99.90
13976;DHT22;7062;49.792;9.946;2023-09-08T01:58:12;19.30;99.90
13976;DHT22;7062;49.792;9.946;2023-09-08T02:00:38;19.30;99.90
13976;DHT22;7062;49.792;9.946;2023-09-08T02:03:04;19.20;99.90
13976;DHT22;7062;49.792;9.946;2023-09-08T02:05:29;19.20;99.90
13976;DHT22;7062;49.792;9.946;2023-09-08T02:07:56;19.20;99.90
13976;DHT22;7062;49.792;9.946;2023-09-08T02:10:22;19.20;99.90
13976;DHT22;7062;49.792;9.946;2023-09-08T02:12:48;19.10;99.90
13976;DHT22;7062;49.792;9.946;2023-09-08T02:15:13;19.10;99.90
13976;DHT22;7062;49.792;9.946;2023-09-08T02:17:39;19.10;99.90
13976;DHT22;7062;49.792;9.946;2023-09-08T02:20:05;19.00;99.90
13976;DHT22;7062;49.792;9.946;2023-09-08T02:22:31;19.00;99.90
13976;DHT22;7062;49.792;9.946;2023-09-08T02:24:56;18.90;99.90
13976;DHT22;7062;49.792;9.946;2023-09-08T02:27:23;18.90;99.90
13976;DHT22;7062;49.792;9.946;2023-09-08T02:29:49;18.90;99.90
13976;DHT22;7062;49.792;9.946;2023-09-08T02:32:14;18.80;99.90
13976;DHT22;7062;49.792;9.946;2023-09-08T02:34:40;18.90;99.90
13976;DHT22;7062;49.792;9.946;2023-09-08T02:37:07;18.80;99.90
13976;DHT22;7062;49.792;9.946;2023-09-08T02:39:33;18.60;99.90
13976;DHT22;7062;49.792;9.946;2023-09-08T02:41:59;18.60;99.90
13976;DHT22;7062;49.792;9.946;2023-09-08T02:44:25;18.60;99.90
13976;DHT22;7062;49.792;9.946;2023-09-08T02:46:52;18.60;99.90
13976;DHT22;7062;49.792;9.946;2023-09-08T02:49:17;18.60;99.90
13976;DHT22;7062;49.792;9.946;2023-09-08T02:51:43;18.60;99.90
13976;DHT22;7062;49.792;9.946;2023-09-08T02:54:08;18.60;99.90
13976;DHT22;7062;49.792;9.946;2023-09-08T02:56:34;18.50;99.90
13976;DHT22;7062;49.792;9.946;2023-09-08T02:59:00;18.50;99.90
13976;DHT22;7062;49.792;9.946;2023-09-08T03:01:25;18.50;99.90
13976;DHT22;7062;49.792;9.946;2023-09-08T03:03:51;18.50;99.90
13976;DHT22;7062;49.792;9.946;2023-09-08T03:06:18;18.40;99.90
13976;DHT22;7062;49.792;9.946;2023-09-08T03:08:45;18.30;99.90
13976;DHT22;7062;49.792;9.946;2023-09-08T03:11:12;18.20;99.90
13976;DHT22;7062;49.792;9.946;2023-09-08T03:13:37;18.10;99.90
13976;DHT22;7062;49.792;9.946;2023-09-08T03:16:07;18.00;99.90
13976;DHT22;7062;49.792;9.946;2023-09-08T03:18:34;17.90;99.90
13976;DHT22;7062;49.792;9.946;2023-09-08T03:21:02;17.90;99.90
13976;DHT22;7062;49.792;9.946;2023-09-08T03:23:38;17.80;99.90
13976;DHT22;7062;49.792;9.946;2023-09-08T03:26:04;17.70;99.90
13976;DHT22;7062;49.792;9.946;2023-09-08T03:28:32;17.70;99.90
13976;DHT22;7062;49.792;9.946;2023-09-08T03:30:57;17.70;99.90
13976;DHT22;7062;49.792;9.946;2023-09-08T03:33:23;17.70;99.90
13976;DHT22;7062;49.792;9.946;2023-09-08T03:35:49;17.70;99.90
13976;DHT22;7062;49.792;9.946;2023-09-08T03:38:14;17.50;99.90
13976;DHT22;7062;49.792;9.946;2023-09-08T03:40:40;17.60;99.90
13976;DHT22;7062;49.792;9.946;2023-09-08T03:43:06;17.60;99.90
13976;DHT22;7062;49.792;9.946;2023-09-08T03:45:31;17.60;99.90
13976;DHT22;7062;49.792;9.946;2023-09-08T03:47:57;17.60;99.90
13976;DHT22;7062;49.792;9.946;2023-09-08T03:50:23;17.50;99.90
13976;DHT22;7062;49.792;9.946;2023-09-08T03:52:49;17.60;99.90
13976;DHT22;7062;49.792;9.946;2023-09-08T03:55:15;17.60;99.90
13976;DHT22;7062;49.792;9.946;2023-09-08T03:57:42;17.50;99.90
13976;DHT22;7062;49.792;9.946;2023-09-08T04:00:08;17.50;99.90
13976;DHT22;7062;49.792;9.946;2023-09-08T04:02:36;17.50;99.90
13976;DHT22;7062;49.792;9.946;2023-09-08T04:05:02;17.50;99.90
13976;DHT22;7062;49.792;9.946;2023-09-08T04:07:28;17.50;99.90
13976;DHT22;7062;49.792;9.946;2023-09-08T04:09:53;17.50;99.90
13976;DHT22;7062;49.792;9.946;2023-09-08T04:12:19;17.40;99.90
13976;DHT22;7062;49.792;9.946;2023-09-08T04:14:45;17.30;99.90
13976;DHT22;7062;49.792;9.946;2023-09-08T04:17:10;17.30;99.90
13976;DHT22;7062;49.792;9.946;2023-09-08T04:19:36;17.30;99.90
13976;DHT22;7062;49.792;9.946;2023-09-08T04:22:02;17.30;99.90
13976;DHT22;7062;49.792;9.946;2023-09-08T04:24:28;17.20;99.90
13976;DHT22;7062;49.792;9.946;2023-09-08T04:26:53;17.20;99.90
13976;DHT22;7062;49.792;9.946;2023-09-08T04:29:19;17.20;99.90
13976;DHT22;7062;49.792;9.946;2023-09-08T04:31:45;17.20;99.90
13976;DHT22;7062;49.792;9.946;2023-09-08T04:34:11;17.10;99.90
13976;DHT22;7062;49.792;9.946;2023-09-08T04:36:37;17.10;99.90
13976;DHT22;7062;49.792;9.946;2023-09-08T04:39:02;17.10;99.90
13976;DHT22;7062;49.792;9.946;2023-09-08T04:41:28;17.10;99.90
13976;DHT22;7062;49.792;9.946;2023-09-08T04:43:53;17.10;99.90
13976;DHT22;7062;49.792;9.946;2023-09-08T04:46:20;17.20;99.90
13976;DHT22;7062;49.792;9.946;2023-09-08T04:48:46;17.10;99.90
13976;DHT22;7062;49.792;9.946;2023-09-08T04:51:12;17.10;99.90
13976;DHT22;7062;49.792;9.946;2023-09-08T04:53:37;17.10;99.90
13976;DHT22;7062;49.792;9.946;2023-09-08T04:56:03;17.10;99.90
13976;DHT22;7062;49.792;9.946;2023-09-08T04:58:29;17.10;99.90
13976;DHT22;7062;49.792;9.946;2023-09-08T05:00:54;17.00;99.90
13976;DHT22;7062;49.792;9.946;2023-09-08T05:03:20;17.00;99.90
13976;DHT22;7062;49.792;9.946;2023-09-08T05:05:46;16.90;99.90
13976;DHT22;7062;49.792;9.946;2023-09-08T05:08:11;16.90;99.90
13976;DHT22;7062;49.792;9.946;2023-09-08T05:10:37;16.90;99.90
13976;DHT22;7062;49.792;9.946;2023-09-08T05:13:03;16.90;99.90
13976;DHT22;7062;49.792;9.946;2023-09-08T05:15:28;16.80;99.90
13976;DHT22;7062;49.792;9.946;2023-09-08T05:17:56;16.80;99.90
13976;DHT22;7062;49.792;9.946;2023-09-08T05:20:21;16.80;99.90
13976;DHT22;7062;49.792;9.946;2023-09-08T05:22:47;16.90;99.90
13976;DHT22;7062;49.792;9.946;2023-09-08T05:25:13;16.90;99.90
13976;DHT22;7062;49.792;9.946;2023-09-08T05:27:38;17.00;99.90
13976;DHT22;7062;49.792;9.946;2023-09-08T05:30:05;17.00;99.90
13976;DHT22;7062;49.792;9.946;2023-09-08T05:32:31;17.10;99.90
13976;DHT22;7062;49.792;9.946;2023-09-08T05:34:57;17.20;99.90
13976;DHT22;7062;49.792;9.946;2023-09-08T05:37:22;17.30;99.90
13976;DHT22;7062;49.792;9.946;2023-09-08T05:39:48;17.40;99.90
13976;DHT22;7062;49.792;9.946;2023-09-08T05:42:13;17.40;99.90
13976;DHT22;7062;49.792;9.946;2023-09-08T05:44:39;17.40;99.90
13976;DHT22;7062;49.792;9.946;2023-09-08T05:47:05;17.30;99.90
13976;DHT22;7062;49.792;9.946;2023-09-08T05:49:31;17.50;99.90
13976;DHT22;7062;49.792;9.946;2023-09-08T05:51:56;17.50;99.90
13976;DHT22;7062;49.792;9.946;2023-09-08T05:54:22;17.50;99.90
13976;DHT22;7062;49.792;9.946;2023-09-08T05:56:48;17.50;99.90
13976;DHT22;7062;49.792;9.946;2023-09-08T05:59:13;17.40;99.90
13976;DHT22;7062;49.792;9.946;2023-09-08T06:01:39;17.50;99.90
13976;DHT22;7062;49.792;9.946;2023-09-08T06:04:05;17.60;99.90
13976;DHT22;7062;49.792;9.946;2023-09-08T06:06:31;17.60;99.90
13976;DHT22;7062;49.792;9.946;2023-09-08T06:08:57;17.60;99.90
13976;DHT22;7062;49.792;9.946;2023-09-08T06:11:23;17.60;99.90
13976;DHT22;7062;49.792;9.946;2023-09-08T06:13:49;17.50;99.90
13976;DHT22;7062;49.792;9.946;2023-09-08T06:16:14;17.50;99.90
13976;DHT22;7062;49.792;9.946;2023-09-08T06:18:40;17.50;99.90
13976;DHT22;7062;49.792;9.946;2023-09-08T06:21:06;17.50;99.90
13976;DHT22;7062;49.792;9.946;2023-09-08T06:23:33;17.50;99.90
13976;DHT22;7062;49.792;9.946;2023-09-08T06:26:00;17.60;99.90
13976;DHT22;7062;49.792;9.946;2023-09-08T06:28:29;17.70;99.90
13976;DHT22;7062;49.792;9.946;2023-09-08T06:30:55;17.80;99.90
13976;DHT22;7062;49.792;9.946;2023-09-08T06:33:21;17.80;99.90
13976;DHT22;7062;49.792;9.946;2023-09-08T06:35:47;17.90;99.90
13976;DHT22;7062;49.792;9.946;2023-09-08T06:38:13;17.90;99.90
13976;DHT22;7062;49.792;9.946;2023-09-08T06:40:39;18.00;99.90
13976;DHT22;7062;49.792;9.946;2023-09-08T06:43:05;18.10;99.90
13976;DHT22;7062;49.792;9.946;2023-09-08T06:45:30;18.10;99.90
13976;DHT22;7062;49.792;9.946;2023-09-08T06:47:56;18.10;99.90
13976;DHT22;7062;49.792;9.946;2023-09-08T06:50:22;18.10;99.90
13976;DHT22;7062;49.792;9.946;2023-09-08T06:52:49;18.20;99.90
13976;DHT22;7062;49.792;9.946;2023-09-08T06:55:16;18.30;99.90
13976;DHT22;7062;49.792;9.946;2023-09-08T06:57:42;18.40;99.90
13976;DHT22;7062;49.792;9.946;2023-09-08T07:00:08;18.50;99.90
13976;DHT22;7062;49.792;9.946;2023-09-08T07:02:37;18.60;99.90
13976;DHT22;7062;49.792;9.946;2023-09-08T07:05:03;18.60;99.90
13976;DHT22;7062;49.792;9.946;2023-09-08T07:07:36;18.70;99.90
13976;DHT22;7062;49.792;9.946;2023-09-08T07:10:03;18.70;99.90
13976;DHT22;7062;49.792;9.946;2023-09-08T07:12:29;18.80;99.90
13976;DHT22;7062;49.792;9.946;2023-09-08T07:14:55;18.90;99.90
13976;DHT22;7062;49.792;9.946;2023-09-08T07:17:21;19.00;99.90
13976;DHT22;7062;49.792;9.946;2023-09-08T07:19:49;19.10;99.90
13976;DHT22;7062;49.792;9.946;2023-09-08T07:22:14;19.10;99.90
13976;DHT22;7062;49.792;9.946;2023-09-08T07:24:40;19.10;99.90
13976;DHT22;7062;49.792;9.946;2023-09-08T07:27:06;19.30;99.90
13976;DHT22;7062;49.792;9.946;2023-09-08T07:29:32;19.40;99.90
13976;DHT22;7062;49.792;9.946;2023-09-08T07:31:58;19.50;99.90
13976;DHT22;7062;49.792;9.946;2023-09-08T07:34:23;19.70;99.90
13976;DHT22;7062;49.792;9.946;2023-09-08T07:36:49;19.80;99.90
13976;DHT22;7062;49.792;9.946;2023-09-08T07:39:15;20.00;99.90
13976;DHT22;7062;49.792;9.946;2023-09-08T07:41:40;20.10;99.90
13976;DHT22;7062;49.792;9.946;2023-09-08T07:44:06;20.20;99.90
13976;DHT22;7062;49.792;9.946;2023-09-08T07:46:32;20.30;99.90
13976;DHT22;7062;49.792;9.946;2023-09-08T07:48:59;20.40;99.90
13976;DHT22;7062;49.792;9.946;2023-09-08T07:51:25;20.60;99.90
13976;DHT22;7062;49.792;9.946;2023-09-08T07:53:52;20.80;99.90
13976;DHT22;7062;49.792;9.946;2023-09-08T07:56:18;20.90;99.90
13976;DHT22;7062;49.792;9.946;2023-09-08T07:58:44;21.10;99.90
13976;DHT22;7062;49.792;9.946;2023-09-08T08:01:09;21.10;99.90
13976;DHT22;7062;49.792;9.946;2023-09-08T08:03:35;21.30;99.90
13976;DHT22;7062;49.792;9.946;2023-09-08T08:06:01;21.40;99.90
13976;DHT22;7062;49.792;9.946;2023-09-08T08:08:27;21.50;99.90
13976;DHT22;7062;49.792;9.946;2023-09-08T08:10:53;21.60;99.90
13976;DHT22;7062;49.792;9.946;2023-09-08T08:13:18;21.80;99.90
13976;DHT22;7062;49.792;9.946;2023-09-08T08:15:44;21.90;99.90
13976;DHT22;7062;49.792;9.946;2023-09-08T08:18:12;22.00;99.90
13976;DHT22;7062;49.792;9.946;2023-09-08T08:20:39;22.20;99.90
13976;DHT22;7062;49.792;9.946;2023-09-08T08:23:05;22.30;99.90
13976;DHT22;7062;49.792;9.946;2023-09-08T08:25:31;22.40;99.90
13976;DHT22;7062;49.792;9.946;2023-09-08T08:27:58;22.50;99.90
13976;DHT22;7062;49.792;9.946;2023-09-08T08:30:24;22.60;99.90
13976;DHT22;7062;49.792;9.946;2023-09-08T08:32:50;22.80;99.90
13976;DHT22;7062;49.792;9.946;2023-09-08T08:35:17;22.90;99.90
13976;DHT22;7062;49.792;9.946;2023-09-08T08:37:43;23.00;99.90
13976;DHT22;7062;49.792;9.946;2023-09-08T08:40:11;23.20;99.90
13976;DHT22;7062;49.792;9.946;2023-09-08T08:42:39;23.20;99.90
13976;DHT22;7062;49.792;9.946;2023-09-08T08:45:05;23.20;99.90
13976;DHT22;7062;49.792;9.946;2023-09-08T08:47:31;23.30;99.90
13976;DHT22;7062;49.792;9.946;2023-09-08T08:49:58;23.40;99.90
13976;DHT22;7062;49.792;9.946;2023-09-08T08:52:27;23.60;99.90
13976;DHT22;7062;49.792;9.946;2023-09-08T08:54:53;23.80;99.90
13976;DHT22;7062;49.792;9.946;2023-09-08T08:57:20;23.80;99.90
13976;DHT22;7062;49.792;9.946;2023-09-08T08:59:47;23.70;99.90
13976;DHT22;7062;49.792;9.946;2023-09-08T09:02:14;24.10;99.90
13976;DHT22;7062;49.792;9.946;2023-09-08T09:04:40;24.20;99.90
13976;DHT22;7062;49.792;9.946;2023-09-08T09:07:07;24.50;99.90
13976;DHT22;7062;49.792;9.946;2023-09-08T09:09:33;25.20;99.90
13976;DHT22;7062;49.792;9.946;2023-09-08T09:11:58;25.70;99.90
13976;DHT22;7062;49.792;9.946;2023-09-08T09:14:25;25.80;99.90
13976;DHT22;7062;49.792;9.946;2023-09-08T09:16:51;26.40;99.90
13976;DHT22;7062;49.792;9.946;2023-09-08T09:19:21;27.20;99.90
13976;DHT22;7062;49.792;9.946;2023-09-08T09:21:54;28.30;99.90
13976;DHT22;7062;49.792;9.946;2023-09-08T09:24:35;29.50;98.60
13976;DHT22;7062;49.792;9.946;2023-09-08T09:27:07;30.30;96.80
13976;DHT22;7062;49.792;9.946;2023-09-08T09:29:33;31.30;94.20
13976;DHT22;7062;49.792;9.946;2023-09-08T09:32:04;31.50;92.90
13976;DHT22;7062;49.792;9.946;2023-09-08T09:34:31;32.20;92.20
13976;DHT22;7062;49.792;9.946;2023-09-08T09:36:57;32.70;90.70
13976;DHT22;7062;49.792;9.946;2023-09-08T09:39:24;33.20;88.50
13976;DHT22;7062;49.792;9.946;2023-09-08T09:41:55;33.70;85.60
13976;DHT22;7062;49.792;9.946;2023-09-08T09:44:21;33.90;85.40
13976;DHT22;7062;49.792;9.946;2023-09-08T09:46:48;33.90;82.70
13976;DHT22;7062;49.792;9.946;2023-09-08T09:49:15;34.00;81.60
13976;DHT22;7062;49.792;9.946;2023-09-08T09:51:45;34.80;81.20
13976;DHT22;7062;49.792;9.946;2023-09-08T09:54:13;35.70;78.90
13976;DHT22;7062;49.792;9.946;2023-09-08T09:56:40;36.10;76.70
13976;DHT22;7062;49.792;9.946;2023-09-08T09:59:11;36.80;74.50
13976;DHT22;7062;49.792;9.946;2023-09-08T10:01:41;36.90;71.70
13976;DHT22;7062;49.792;9.946;2023-09-08T10:04:08;37.10;71.30
13976;DHT22;7062;49.792;9.946;2023-09-08T10:06:39;37.20;70.50
13976;DHT22;7062;49.792;9.946;2023-09-08T10:09:06;37.50;69.30
13976;DHT22;7062;49.792;9.946;2023-09-08T10:11:48;38.20;67.90
13976;DHT22;7062;49.792;9.946;2023-09-08T10:14:18;39.60;63.70
13976;DHT22;7062;49.792;9.946;2023-09-08T10:16:45;39.50;62.20
13976;DHT22;7062;49.792;9.946;2023-09-08T10:19:16;39.80;61.60
13976;DHT22;7062;49.792;9.946;2023-09-08T10:21:45;40.00;59.90
13976;DHT22;7062;49.792;9.946;2023-09-08T10:24:15;40.20;59.30
13976;DHT22;7062;49.792;9.946;2023-09-08T10:26:44;40.80;58.50
13976;DHT22;7062;49.792;9.946;2023-09-08T10:29:12;40.70;57.40
13976;DHT22;7062;49.792;9.946;2023-09-08T10:31:37;41.10;56.40
13976;DHT22;7062;49.792;9.946;2023-09-08T10:34:04;41.50;54.90
13976;DHT22;7062;49.792;9.946;2023-09-08T10:36:30;41.40;53.90
13976;DHT22;7062;49.792;9.946;2023-09-08T10:39:31;40.70;54.40
13976;DHT22;7062;49.792;9.946;2023-09-08T10:44:45;40.70;53.70
13976;DHT22;7062;49.792;9.946;2023-09-08T10:47:24;41.00;53.60
13976;DHT22;7062;49.792;9.946;2023-09-08T10:49:51;41.10;53.70
13976;DHT22;7062;49.792;9.946;2023-09-08T10:52:21;41.50;53.20
13976;DHT22;7062;49.792;9.946;2023-09-08T10:54:49;42.20;51.10
13976;DHT22;7062;49.792;9.946;2023-09-08T10:57:20;42.10;51.50
13976;DHT22;7062;49.792;9.946;2023-09-08T10:59:57;42.10;51.30
13976;DHT22;7062;49.792;9.946;2023-09-08T11:02:41;42.30;51.60
13976;DHT22;7062;49.792;9.946;2023-09-08T11:05:08;43.40;49.80
13976;DHT22;7062;49.792;9.946;2023-09-08T11:07:38;44.20;48.60
13976;DHT22;7062;49.792;9.946;2023-09-08T11:10:05;44.90;48.50
13976;DHT22;7062;49.792;9.946;2023-09-08T11:12:31;45.60;47.50
13976;DHT22;7062;49.792;9.946;2023-09-08T11:14:57;45.20;46.10
13976;DHT22;7062;49.792;9.946;2023-09-08T11:17:27;44.70;44.70
13976;DHT22;7062;49.792;9.946;2023-09-08T11:19:54;44.80;45.10
13976;DHT22;7062;49.792;9.946;2023-09-08T11:22:25;45.20;45.50
13976;DHT22;7062;49.792;9.946;2023-09-08T11:24:55;45.80;44.60
13976;DHT22;7062;49.792;9.946;2023-09-08T11:27:22;46.30;43.10
13976;DHT22;7062;49.792;9.946;2023-09-08T11:29:49;45.20;43.10
13976;DHT22;7062;49.792;9.946;2023-09-08T11:32:15;44.40;43.30
13976;DHT22;7062;49.792;9.946;2023-09-08T11:34:41;44.10;44.80
13976;DHT22;7062;49.792;9.946;2023-09-08T11:37:11;45.30;43.20
13976;DHT22;7062;49.792;9.946;2023-09-08T11:39:41;45.90;42.10
13976;DHT22;7062;49.792;9.946;2023-09-08T11:42:08;46.40;41.10
13976;DHT22;7062;49.792;9.946;2023-09-08T11:44:36;46.00;41.60
13976;DHT22;7062;49.792;9.946;2023-09-08T11:47:12;45.80;39.80
13976;DHT22;7062;49.792;9.946;2023-09-08T11:49:41;45.70;40.00
13976;DHT22;7062;49.792;9.946;2023-09-08T11:52:07;45.00;40.80
13976;DHT22;7062;49.792;9.946;2023-09-08T11:54:34;45.70;40.60
13976;DHT22;7062;49.792;9.946;2023-09-08T11:57:02;45.50;39.30
13976;DHT22;7062;49.792;9.946;2023-09-08T11:59:31;44.70;40.70
13976;DHT22;7062;49.792;9.946;2023-09-08T12:01:58;45.30;40.20
13976;DHT22;7062;49.792;9.946;2023-09-08T12:04:24;45.70;39.50
13976;DHT22;7062;49.792;9.946;2023-09-08T12:06:51;45.00;39.40
13976;DHT22;7062;49.792;9.946;2023-09-08T12:09:18;45.30;39.30
13976;DHT22;7062;49.792;9.946;2023-09-08T12:11:44;44.90;39.90
13976;DHT22;7062;49.792;9.946;2023-09-08T12:14:13;45.40;40.90
13976;DHT22;7062;49.792;9.946;2023-09-08T12:16:40;45.20;39.80
13976;DHT22;7062;49.792;9.946;2023-09-08T12:19:07;46.30;39.70
13976;DHT22;7062;49.792;9.946;2023-09-08T12:21:54;47.90;38.60
13976;DHT22;7062;49.792;9.946;2023-09-08T12:24:20;47.50;37.60
13976;DHT22;7062;49.792;9.946;2023-09-08T12:26:49;46.90;38.60
13976;DHT22;7062;49.792;9.946;2023-09-08T12:29:15;47.60;38.50
13976;DHT22;7062;49.792;9.946;2023-09-08T12:31:40;48.20;36.80
13976;DHT22;7062;49.792;9.946;2023-09-08T12:34:06;47.40;37.30
13976;DHT22;7062;49.792;9.946;2023-09-08T12:36:36;45.70;38.20
13976;DHT22;7062;49.792;9.946;2023-09-08T12:39:04;46.10;38.10
13976;DHT22;7062;49.792;9.946;2023-09-08T12:41:30;46.60;37.60
13976;DHT22;7062;49.792;9.946;2023-09-08T12:43:55;46.70;38.40
13976;DHT22;7062;49.792;9.946;2023-09-08T12:46:21;46.70;37.30
13976;DHT22;7062;49.792;9.946;2023-09-08T12:48:47;46.80;38.40
13976;DHT22;7062;49.792;9.946;2023-09-08T12:51:13;47.00;37.40
13976;DHT22;7062;49.792;9.946;2023-09-08T12:53:38;46.70;36.90
13976;DHT22;7062;49.792;9.946;2023-09-08T12:56:04;46.90;37.60
13976;DHT22;7062;49.792;9.946;2023-09-08T12:58:29;45.20;38.10
13976;DHT22;7062;49.792;9.946;2023-09-08T13:00:55;46.10;37.80
13976;DHT22;7062;49.792;9.946;2023-09-08T13:03:21;46.50;37.80
13976;DHT22;7062;49.792;9.946;2023-09-08T13:05:47;47.30;37.20
13976;DHT22;7062;49.792;9.946;2023-09-08T13:08:13;48.10;36.50
13976;DHT22;7062;49.792;9.946;2023-09-08T13:10:40;48.70;36.50
13976;DHT22;7062;49.792;9.946;2023-09-08T13:13:06;47.90;36.40
13976;DHT22;7062;49.792;9.946;2023-09-08T13:15:32;47.30;35.60
13976;DHT22;7062;49.792;9.946;2023-09-08T13:17:57;47.20;36.00
13976;DHT22;7062;49.792;9.946;2023-09-08T13:20:23;47.30;36.10
13976;DHT22;7062;49.792;9.946;2023-09-08T13:22:49;47.90;35.80
13976;DHT22;7062;49.792;9.946;2023-09-08T13:25:14;48.20;36.00
13976;DHT22;7062;49.792;9.946;2023-09-08T13:27:41;48.30;35.90
13976;DHT22;7062;49.792;9.946;2023-09-08T13:30:14;47.90;36.20
13976;DHT22;7062;49.792;9.946;2023-09-08T13:32:41;47.90;35.50
13976;DHT22;7062;49.792;9.946;2023-09-08T13:35:07;46.90;35.00
13976;DHT22;7062;49.792;9.946;2023-09-08T13:37:33;47.00;35.90
13976;DHT22;7062;49.792;9.946;2023-09-08T13:40:03;47.50;34.60
13976;DHT22;7062;49.792;9.946;2023-09-08T13:42:29;48.00;35.20
13976;DHT22;7062;49.792;9.946;2023-09-08T13:44:55;47.90;35.10
13976;DHT22;7062;49.792;9.946;2023-09-08T13:47:21;48.20;34.70
13976;DHT22;7062;49.792;9.946;2023-09-08T13:49:46;48.40;34.30
13976;DHT22;7062;49.792;9.946;2023-09-08T13:52:12;47.60;35.10
13976;DHT22;7062;49.792;9.946;2023-09-08T13:54:38;47.10;35.40
13976;DHT22;7062;49.792;9.946;2023-09-08T13:57:05;47.30;35.00
13976;DHT22;7062;49.792;9.946;2023-09-08T13:59:30;47.30;34.10
13976;DHT22;7062;49.792;9.946;2023-09-08T14:01:56;46.80;35.20
13976;DHT22;7062;49.792;9.946;2023-09-08T14:04:27;47.20;35.00
13976;DHT22;7062;49.792;9.946;2023-09-08T14:06:53;47.60;34.60
13976;DHT22;7062;49.792;9.946;2023-09-08T14:09:18;47.70;35.50
13976;DHT22;7062;49.792;9.946;2023-09-08T14:11:44;47.70;34.60
13976;DHT22;7062;49.792;9.946;2023-09-08T14:14:10;47.80;34.50
13976;DHT22;7062;49.792;9.946;2023-09-08T14:16:36;47.70;33.70
13976;DHT22;7062;49.792;9.946;2023-09-08T14:19:01;47.10;34.40
13976;DHT22;7062;49.792;9.946;2023-09-08T14:21:28;47.10;35.30
13976;DHT22;7062;49.792;9.946;2023-09-08T14:23:53;47.50;34.80
13976;DHT22;7062;49.792;9.946;2023-09-08T14:26:19;47.30;34.80
13976;DHT22;7062;49.792;9.946;2023-09-08T14:28:46;47.30;35.40
13976;DHT22;7062;49.792;9.946;2023-09-08T14:31:13;47.60;34.50
13976;DHT22;7062;49.792;9.946;2023-09-08T14:33:39;47.60;34.70
13976;DHT22;7062;49.792;9.946;2023-09-08T14:36:04;46.00;34.80
13976;DHT22;7062;49.792;9.946;2023-09-08T14:38:30;45.60;35.00
13976;DHT22;7062;49.792;9.946;2023-09-08T14:41:00;45.20;34.50
13976;DHT22;7062;49.792;9.946;2023-09-08T14:43:27;45.30;35.20
13976;DHT22;7062;49.792;9.946;2023-09-08T14:45:53;44.90;35.50
13976;DHT22;7062;49.792;9.946;2023-09-08T14:48:19;44.70;34.50
13976;DHT22;7062;49.792;9.946;2023-09-08T14:50:45;45.20;34.80
13976;DHT22;7062;49.792;9.946;2023-09-08T14:53:12;45.80;35.20
13976;DHT22;7062;49.792;9.946;2023-09-08T14:55:37;44.40;36.50
13976;DHT22;7062;49.792;9.946;2023-09-08T14:58:03;43.90;37.30
13976;DHT22;7062;49.792;9.946;2023-09-08T15:00:29;44.10;36.80
13976;DHT22;7062;49.792;9.946;2023-09-08T15:02:55;44.00;36.60
13976;DHT22;7062;49.792;9.946;2023-09-08T15:05:20;43.90;37.00
13976;DHT22;7062;49.792;9.946;2023-09-08T15:07:46;43.80;37.20
13976;DHT22;7062;49.792;9.946;2023-09-08T15:10:12;42.40;38.40
13976;DHT22;7062;49.792;9.946;2023-09-08T15:12:38;43.00;38.00
13976;DHT22;7062;49.792;9.946;2023-09-08T15:15:04;43.40;37.30
13976;DHT22;7062;49.792;9.946;2023-09-08T15:17:30;42.20;38.50
13976;DHT22;7062;49.792;9.946;2023-09-08T15:19:56;42.40;38.60
13976;DHT22;7062;49.792;9.946;2023-09-08T15:22:21;42.80;37.40
13976;DHT22;7062;49.792;9.946;2023-09-08T15:24:47;42.90;37.20
13976;DHT22;7062;49.792;9.946;2023-09-08T15:27:13;43.50;37.00
13976;DHT22;7062;49.792;9.946;2023-09-08T15:29:38;43.50;37.50
13976;DHT22;7062;49.792;9.946;2023-09-08T15:32:04;43.30;37.70
13976;DHT22;7062;49.792;9.946;2023-09-08T15:34:31;43.10;38.40
13976;DHT22;7062;49.792;9.946;2023-09-08T15:36:57;42.70;39.20
13976;DHT22;7062;49.792;9.946;2023-09-08T15:39:23;43.50;38.20
13976;DHT22;7062;49.792;9.946;2023-09-08T15:41:48;43.60;38.60
13976;DHT22;7062;49.792;9.946;2023-09-08T15:44:14;43.80;38.30
13976;DHT22;7062;49.792;9.946;2023-09-08T15:46:40;43.70;38.60